sensor_id;sensor_type;location;lat;lon;timestamp;pressure;altitude;pressure_sealevel;temperature;humidity
49835;BME280;35729;52.090;13.162;2023-04-04T00:01:05;102474.66;;;-0.08;75.48
49835;BME280;35729;52.090;13.162;2023-04-04T00:03:34;102469.25;;;-0.13;75.28
49835;BME280;35729;52.090;13.162;2023-04-04T00:06:05;102478.47;;;-0.18;75.40
49835;BME280;35729;52.090;13.162;2023-04-04T00:08:33;102475.69;;;-0.23;75.71
49835;BME280;35729;52.090;13.162;2023-04-04T00:11:02;102484.03;;;-0.27;75.76
49835;BME280;35729;52.090;13.162;2023-04-04T00:13:30;102484.69;;;-0.31;75.90
49835;BME280;35729;52.090;13.162;2023-04-04T00:15:59;102480.22;;;-0.35;75.85
49835;BME280;35729;52.090;13.162;2023-04-04T00:18:27;102479.22;;;-0.37;75.91
49835;BME280;35729;52.090;13.162;2023-04-04T00:20:57;102476.50;;;-0.40;76.19
49835;BME280;35729;52.090;13.162;2023-04-04T00:23:28;102474.66;;;-0.43;76.26
49835;BME280;35729;52.090;13.162;2023-04-04T00:25:56;102475.28;;;-0.47;76.34
49835;BME280;35729;52.090;13.162;2023-04-04T00:28:32;102472.63;;;-0.48;76.30
49835;BME280;35729;52.090;13.162;2023-04-04T00:31:00;102478.44;;;-0.53;76.14
49835;BME280;35729;52.090;13.162;2023-04-04T00:33:29;102477.41;;;-0.56;76.25
49835;BME280;35729;52.090;13.162;2023-04-04T00:35:57;102479.84;;;-0.59;76.36
49835;BME280;35729;52.090;13.162;2023-04-04T00:38:28;102477.97;;;-0.62;76.41
49835;BME280;35729;52.090;13.162;2023-04-04T00:40:57;102478.59;;;-0.66;76.48
49835;BME280;35729;52.090;13.162;2023-04-04T00:43:26;102480.25;;;-0.68;76.73
49835;BME280;35729;52.090;13.162;2023-04-04T00:45:55;102483.44;;;-0.72;76.60
49835;BME280;35729;52.090;13.162;2023-04-04T00:48:24;102477.22;;;-0.76;76.82
49835;BME280;35729;52.090;13.162;2023-04-04T00:50:52;102475.38;;;-0.78;76.94
49835;BME280;35729;52.090;13.162;2023-04-04T00:53:21;102474.44;;;-0.80;77.01
49835;BME280;35729;52.090;13.162;2023-04-04T00:55:52;102475.88;;;-0.86;76.83
49835;BME280;35729;52.090;13.162;2023-04-04T00:58:21;102466.28;;;-0.88;77.23
49835;BME280;35729;52.090;13.162;2023-04-04T01:00:50;102474.66;;;-0.92;76.97
49835;BME280;35729;52.090;13.162;2023-04-04T01:03:18;102471.91;;;-0.95;77.10
49835;BME280;35729;52.090;13.162;2023-04-04T01:05:47;102470.78;;;-1.01;77.17
49835;BME280;35729;52.090;13.162;2023-04-04T01:08:20;102464.59;;;-1.04;77.11
49835;BME280;35729;52.090;13.162;2023-04-04T01:10:52;102468.69;;;-1.08;77.35
49835;BME280;35729;52.090;13.162;2023-04-04T01:13:21;102465.97;;;-1.11;77.48
49835;BME280;35729;52.090;13.162;2023-04-04T01:15:50;102468.34;;;-1.14;77.53
49835;BME280;35729;52.090;13.162;2023-04-04T01:18:20;102463.84;;;-1.18;77.71
49835;BME280;35729;52.090;13.162;2023-04-04T01:20:53;102474.06;;;-1.20;77.75
49835;BME280;35729;52.090;13.162;2023-04-04T01:23:31;102467.00;;;-1.24;77.57
49835;BME280;35729;52.090;13.162;2023-04-04T01:26:04;102466.81;;;-1.27;77.73
49835;BME280;35729;52.090;13.162;2023-04-04T01:28:34;102458.94;;;-1.30;77.98
49835;BME280;35729;52.090;13.162;2023-04-04T01:31:06;102452.78;;;-1.32;78.00
49835;BME280;35729;52.090;13.162;2023-04-04T01:33:38;102455.09;;;-1.37;77.95
49835;BME280;35729;52.090;13.162;2023-04-04T01:36:15;102447.31;;;-1.38;78.15
49835;BME280;35729;52.090;13.162;2023-04-04T01:38:51;102449.81;;;-1.40;78.33
49835;BME280;35729;52.090;13.162;2023-04-04T01:41:24;102447.88;;;-1.44;78.12
49835;BME280;35729;52.090;13.162;2023-04-04T01:43:53;102447.69;;;-1.47;78.28
49835;BME280;35729;52.090;13.162;2023-04-04T01:46:22;102449.31;;;-1.49;78.30
49835;BME280;35729;52.090;13.162;2023-04-04T01:48:51;102444.75;;;-1.53;78.39
49835;BME280;35729;52.090;13.162;2023-04-04T01:51:20;102443.72;;;-1.57;78.41
49835;BME280;35729;52.090;13.162;2023-04-04T01:53:51;102441.97;;;-1.58;78.68
49835;BME280;35729;52.090;13.162;2023-04-04T01:56:19;102436.63;;;-1.61;78.64
49835;BME280;35729;52.090;13.162;2023-04-04T01:58:50;102436.47;;;-1.64;78.89
49835;BME280;35729;52.090;13.162;2023-04-04T02:01:19;102441.63;;;-1.64;78.79
49835;BME280;35729;52.090;13.162;2023-04-04T02:03:48;102437.06;;;-1.68;79.05
49835;BME280;35729;52.090;13.162;2023-04-04T02:06:17;102433.38;;;-1.73;78.91
49835;BME280;35729;52.090;13.162;2023-04-04T02:08:45;102434.97;;;-1.75;78.91
49835;BME280;35729;52.090;13.162;2023-04-04T02:11:14;102427.16;;;-1.77;78.99
49835;BME280;35729;52.090;13.162;2023-04-04T02:13:42;102427.97;;;-1.78;79.30
49835;BME280;35729;52.090;13.162;2023-04-04T02:16:14;102432.16;;;-1.80;79.40
49835;BME280;35729;52.090;13.162;2023-04-04T02:18:42;102433.72;;;-1.82;79.32
49835;BME280;35729;52.090;13.162;2023-04-04T02:21:11;102431.97;;;-1.83;79.51
49835;BME280;35729;52.090;13.162;2023-04-04T02:23:39;102424.06;;;-1.86;79.56
49835;BME280;35729;52.090;13.162;2023-04-04T02:26:08;102427.38;;;-1.89;79.60
49835;BME280;35729;52.090;13.162;2023-04-04T02:28:36;102422.06;;;-1.92;79.82
49835;BME280;35729;52.090;13.162;2023-04-04T02:31:05;102419.28;;;-1.95;79.92
49835;BME280;35729;52.090;13.162;2023-04-04T02:33:36;102423.28;;;-2.00;79.95
49835;BME280;35729;52.090;13.162;2023-04-04T02:36:05;102418.06;;;-2.02;80.04
49835;BME280;35729;52.090;13.162;2023-04-04T02:38:33;102420.44;;;-2.05;80.07
49835;BME280;35729;52.090;13.162;2023-04-04T02:41:02;102419.41;;;-2.08;80.10
49835;BME280;35729;52.090;13.162;2023-04-04T02:43:31;102416.72;;;-2.10;80.31
49835;BME280;35729;52.090;13.162;2023-04-04T02:45:59;102416.66;;;-2.11;80.32
49835;BME280;35729;52.090;13.162;2023-04-04T02:48:28;102413.13;;;-2.14;80.46
49835;BME280;35729;52.090;13.162;2023-04-04T02:50:59;102412.94;;;-2.17;80.30
49835;BME280;35729;52.090;13.162;2023-04-04T02:53:27;102410.19;;;-2.20;80.51
49835;BME280;35729;52.090;13.162;2023-04-04T02:55:56;102408.34;;;-2.22;80.46
49835;BME280;35729;52.090;13.162;2023-04-04T02:58:24;102413.28;;;-2.25;80.70
49835;BME280;35729;52.090;13.162;2023-04-04T03:00:53;102404.59;;;-2.27;80.85
49835;BME280;35729;52.090;13.162;2023-04-04T03:03:21;102401.94;;;-2.29;80.81
49835;BME280;35729;52.090;13.162;2023-04-04T03:05:50;102396.63;;;-2.32;80.95
49835;BME280;35729;52.090;13.162;2023-04-04T03:08:21;102398.31;;;-2.33;81.02
49835;BME280;35729;52.090;13.162;2023-04-04T03:10:50;102385.38;;;-2.34;81.17
49835;BME280;35729;52.090;13.162;2023-04-04T03:13:19;102395.50;;;-2.37;80.94
49835;BME280;35729;52.090;13.162;2023-04-04T03:15:47;102397.97;;;-2.39;81.22
49835;BME280;35729;52.090;13.162;2023-04-04T03:18:16;102396.09;;;-2.41;81.07
49835;BME280;35729;52.090;13.162;2023-04-04T03:20:44;102390.00;;;-2.43;81.20
49835;BME280;35729;52.090;13.162;2023-04-04T03:23:12;102389.91;;;-2.45;81.36
49835;BME280;35729;52.090;13.162;2023-04-04T03:25:43;102386.34;;;-2.47;81.11
49835;BME280;35729;52.090;13.162;2023-04-04T03:28:12;102383.69;;;-2.49;81.29
49835;BME280;35729;52.090;13.162;2023-04-04T03:30:53;102379.34;;;-2.50;81.17
49835;BME280;35729;52.090;13.162;2023-04-04T03:33:22;102377.50;;;-2.52;81.55
49835;BME280;35729;52.090;13.162;2023-04-04T03:35:51;102377.41;;;-2.54;81.29
49835;BME280;35729;52.090;13.162;2023-04-04T03:38:20;102372.06;;;-2.57;81.42
49835;BME280;35729;52.090;13.162;2023-04-04T03:41:00;102374.56;;;-2.58;81.69
49835;BME280;35729;52.090;13.162;2023-04-04T03:43:28;102371.91;;;-2.60;81.71
49835;BME280;35729;52.090;13.162;2023-04-04T03:45:59;102370.91;;;-2.62;81.57
49835;BME280;35729;52.090;13.162;2023-04-04T03:48:28;102368.97;;;-2.66;82.00
49835;BME280;35729;52.090;13.162;2023-04-04T03:50:58;102374.03;;;-2.68;81.78
49835;BME280;35729;52.090;13.162;2023-04-04T03:53:27;102368.78;;;-2.69;81.75
49835;BME280;35729;52.090;13.162;2023-04-04T03:55:58;102368.63;;;-2.72;82.19
49835;BME280;35729;52.090;13.162;2023-04-04T03:58:27;102370.19;;;-2.74;82.18
49835;BME280;35729;52.090;13.162;2023-04-04T04:00:56;102362.47;;;-2.74;82.12
49835;BME280;35729;52.090;13.162;2023-04-04T04:03:24;102364.09;;;-2.76;82.28
49835;BME280;35729;52.090;13.162;2023-04-04T04:05:52;102366.66;;;-2.76;82.23
49835;BME280;35729;52.090;13.162;2023-04-04T04:08:21;102367.47;;;-2.78;82.27
49835;BME280;35729;52.090;13.162;2023-04-04T04:10:50;102365.69;;;-2.79;82.17
49835;BME280;35729;52.090;13.162;2023-04-04T04:13:22;102360.38;;;-2.82;82.27
49835;BME280;35729;52.090;13.162;2023-04-04T04:15:53;102361.16;;;-2.83;82.48
49835;BME280;35729;52.090;13.162;2023-04-04T04:18:22;102364.44;;;-2.85;82.47
49835;BME280;35729;52.090;13.162;2023-04-04T04:20:50;102362.66;;;-2.86;82.68
49835;BME280;35729;52.090;13.162;2023-04-04T04:23:23;102365.16;;;-2.88;82.72
49835;BME280;35729;52.090;13.162;2023-04-04T04:25:52;102365.94;;;-2.89;82.43
49835;BME280;35729;52.090;13.162;2023-04-04T04:28:23;102359.81;;;-2.91;82.66
49835;BME280;35729;52.090;13.162;2023-04-04T04:30:52;102363.16;;;-2.92;82.61
49835;BME280;35729;52.090;13.162;2023-04-04T04:33:26;102363.00;;;-2.95;82.85
49835;BME280;35729;52.090;13.162;2023-04-04T04:35:58;102364.78;;;-2.94;82.79
49835;BME280;35729;52.090;13.162;2023-04-04T04:38:27;102368.91;;;-2.96;82.87
49835;BME280;35729;52.090;13.162;2023-04-04T04:40:56;102367.06;;;-2.99;83.07
49835;BME280;35729;52.090;13.162;2023-04-04T04:43:27;102366.97;;;-3.00;82.85
49835;BME280;35729;52.090;13.162;2023-04-04T04:45:55;102367.75;;;-3.01;83.17
49835;BME280;35729;52.090;13.162;2023-04-04T04:48:24;102371.91;;;-3.03;83.07
49835;BME280;35729;52.090;13.162;2023-04-04T04:50:52;102370.03;;;-3.06;83.06
49835;BME280;35729;52.090;13.162;2023-04-04T04:53:21;102383.00;;;-3.04;83.34
49835;BME280;35729;52.090;13.162;2023-04-04T04:55:49;102381.22;;;-3.05;83.42
49835;BME280;35729;52.090;13.162;2023-04-04T04:58:18;102381.22;;;-3.05;83.51
49835;BME280;35729;52.090;13.162;2023-04-04T05:00:53;102383.78;;;-3.05;83.60
49835;BME280;35729;52.090;13.162;2023-04-04T05:03:22;102388.13;;;-3.04;83.47
49835;BME280;35729;52.090;13.162;2023-04-04T05:05:52;102385.56;;;-3.04;83.41
49835;BME280;35729;52.090;13.162;2023-04-04T05:08:20;102389.81;;;-3.05;83.59
49835;BME280;35729;52.090;13.162;2023-04-04T05:10:49;102390.59;;;-3.06;83.56
49835;BME280;35729;52.090;13.162;2023-04-04T05:13:19;102388.94;;;-3.05;83.86
49835;BME280;35729;52.090;13.162;2023-04-04T05:15:50;102394.84;;;-3.06;83.84
49835;BME280;35729;52.090;13.162;2023-04-04T05:18:19;102391.41;;;-3.07;83.61
49835;BME280;35729;52.090;13.162;2023-04-04T05:20:51;102402.56;;;-3.06;83.76
49835;BME280;35729;52.090;13.162;2023-04-04T05:23:20;102405.13;;;-3.06;83.92
49835;BME280;35729;52.090;13.162;2023-04-04T05:25:48;102401.69;;;-3.07;84.13
49835;BME280;35729;52.090;13.162;2023-04-04T05:28:17;102405.13;;;-3.06;83.99
49835;BME280;35729;52.090;13.162;2023-04-04T05:30:47;102408.56;;;-3.06;83.99
49835;BME280;35729;52.090;13.162;2023-04-04T05:33:18;102410.34;;;-3.05;84.02
49835;BME280;35729;52.090;13.162;2023-04-04T05:35:47;102419.03;;;-3.03;84.27
49835;BME280;35729;52.090;13.162;2023-04-04T05:38:16;102418.34;;;-3.00;84.25
49835;BME280;35729;52.090;13.162;2023-04-04T05:40:44;102424.34;;;-3.00;84.26
49835;BME280;35729;52.090;13.162;2023-04-04T05:43:13;102421.91;;;-2.98;84.53
49835;BME280;35729;52.090;13.162;2023-04-04T05:45:41;102420.28;;;-2.96;84.31
49835;BME280;35729;52.090;13.162;2023-04-04T05:48:09;102423.06;;;-2.93;84.45
49835;BME280;35729;52.090;13.162;2023-04-04T05:50:43;102419.88;;;-2.89;84.27
49835;BME280;35729;52.090;13.162;2023-04-04T05:53:12;102422.63;;;-2.86;84.23
49835;BME280;35729;52.090;13.162;2023-04-04T05:55:41;102430.53;;;-2.83;84.39
49835;BME280;35729;52.090;13.162;2023-04-04T05:58:09;102423.78;;;-2.81;84.51
49835;BME280;35729;52.090;13.162;2023-04-04T06:00:38;102419.63;;;-2.79;84.44
49835;BME280;35729;52.090;13.162;2023-04-04T06:03:07;102426.72;;;-2.74;84.57
49835;BME280;35729;52.090;13.162;2023-04-04T06:05:35;102424.44;;;-2.70;84.44
49835;BME280;35729;52.090;13.162;2023-04-04T06:08:06;102422.94;;;-2.66;84.46
49835;BME280;35729;52.090;13.162;2023-04-04T06:10:34;102424.88;;;-2.62;84.13
49835;BME280;35729;52.090;13.162;2023-04-04T06:13:03;102420.81;;;-2.58;84.24
49835;BME280;35729;52.090;13.162;2023-04-04T06:15:32;102418.53;;;-2.54;84.31
49835;BME280;35729;52.090;13.162;2023-04-04T06:18:00;102418.69;;;-2.51;84.09
49835;BME280;35729;52.090;13.162;2023-04-04T06:20:29;102423.22;;;-2.47;84.08
49835;BME280;35729;52.090;13.162;2023-04-04T06:22:57;102420.84;;;-2.43;84.25
49835;BME280;35729;52.090;13.162;2023-04-04T06:25:53;102421.19;;;-2.37;84.04
49835;BME280;35729;52.090;13.162;2023-04-04T06:28:21;102418.97;;;-2.31;84.08
49835;BME280;35729;52.090;13.162;2023-04-04T06:31:04;102427.84;;;-2.26;84.11
49835;BME280;35729;52.090;13.162;2023-04-04T06:33:33;102411.06;;;-2.19;84.02
49835;BME280;35729;52.090;13.162;2023-04-04T06:36:01;102418.34;;;-2.12;84.25
49835;BME280;35729;52.090;13.162;2023-04-04T06:38:29;102418.78;;;-2.04;84.06
49835;BME280;35729;52.090;13.162;2023-04-04T06:41:01;102422.66;;;-1.96;84.10
49835;BME280;35729;52.090;13.162;2023-04-04T06:43:29;102416.19;;;-1.89;84.01
49835;BME280;35729;52.090;13.162;2023-04-04T06:45:58;102419.19;;;-1.82;83.96
49835;BME280;35729;52.090;13.162;2023-04-04T06:48:27;102418.75;;;-1.74;83.79
49835;BME280;35729;52.090;13.162;2023-04-04T06:50:55;102414.03;;;-1.67;83.56
49835;BME280;35729;52.090;13.162;2023-04-04T06:53:24;102415.25;;;-1.60;83.51
49835;BME280;35729;52.090;13.162;2023-04-04T06:55:52;102413.94;;;-1.52;83.44
49835;BME280;35729;52.090;13.162;2023-04-04T06:58:23;102414.28;;;-1.45;83.06
49835;BME280;35729;52.090;13.162;2023-04-04T07:00:52;102412.22;;;-1.36;82.79
49835;BME280;35729;52.090;13.162;2023-04-04T07:03:21;102415.22;;;-1.28;82.91
49835;BME280;35729;52.090;13.162;2023-04-04T07:05:51;102409.59;;;-1.21;82.62
49835;BME280;35729;52.090;13.162;2023-04-04T07:08:19;102411.84;;;-1.11;82.48
49835;BME280;35729;52.090;13.162;2023-04-04T07:10:48;102420.06;;;-1.02;81.82
49835;BME280;35729;52.090;13.162;2023-04-04T07:13:16;102413.53;;;-0.95;81.70
49835;BME280;35729;52.090;13.162;2023-04-04T07:15:47;102415.69;;;-0.86;81.11
49835;BME280;35729;52.090;13.162;2023-04-04T07:18:16;102412.66;;;-0.79;80.77
49835;BME280;35729;52.090;13.162;2023-04-04T07:20:45;102413.84;;;-0.72;80.90
49835;BME280;35729;52.090;13.162;2023-04-04T07:23:13;102404.81;;;-0.64;80.01
49835;BME280;35729;52.090;13.162;2023-04-04T07:25:42;102404.41;;;-0.55;80.52
49835;BME280;35729;52.090;13.162;2023-04-04T07:28:11;102408.25;;;-0.47;80.75
49835;BME280;35729;52.090;13.162;2023-04-04T07:30:39;102407.81;;;-0.38;80.12
49835;BME280;35729;52.090;13.162;2023-04-04T07:33:10;102405.78;;;-0.27;79.05
49835;BME280;35729;52.090;13.162;2023-04-04T07:35:39;102408.81;;;-0.18;78.96
49835;BME280;35729;52.090;13.162;2023-04-04T07:38:07;102394.59;;;-0.10;78.90
49835;BME280;35729;52.090;13.162;2023-04-04T07:40:37;102396.66;;;-0.03;77.93
49835;BME280;35729;52.090;13.162;2023-04-04T07:43:05;102395.28;;;0.04;76.85
49835;BME280;35729;52.090;13.162;2023-04-04T07:45:34;102394.72;;;0.11;77.12
49835;BME280;35729;52.090;13.162;2023-04-04T07:48:11;102388.13;;;0.17;75.61
49835;BME280;35729;52.090;13.162;2023-04-04T07:50:40;102392.66;;;0.22;75.97
49835;BME280;35729;52.090;13.162;2023-04-04T07:53:08;102392.16;;;0.29;75.86
49835;BME280;35729;52.090;13.162;2023-04-04T07:55:36;102391.53;;;0.35;75.64
49835;BME280;35729;52.090;13.162;2023-04-04T07:58:05;102387.47;;;0.40;75.15
49835;BME280;35729;52.090;13.162;2023-04-04T08:00:33;102386.94;;;0.47;74.38
49835;BME280;35729;52.090;13.162;2023-04-04T08:03:02;102386.44;;;0.55;74.15
49835;BME280;35729;52.090;13.162;2023-04-04T08:05:33;102384.13;;;0.61;73.10
49835;BME280;35729;52.090;13.162;2023-04-04T08:08:01;102389.59;;;0.67;73.20
49835;BME280;35729;52.090;13.162;2023-04-04T08:10:30;102381.16;;;0.71;73.41
49835;BME280;35729;52.090;13.162;2023-04-04T08:12:58;102381.28;;;0.74;69.72
49835;BME280;35729;52.090;13.162;2023-04-04T08:15:28;102375.44;;;0.78;70.33
49835;BME280;35729;52.090;13.162;2023-04-04T08:17:57;102377.34;;;0.83;71.65
49835;BME280;35729;52.090;13.162;2023-04-04T08:20:25;102370.69;;;0.88;69.57
49835;BME280;35729;52.090;13.162;2023-04-04T08:22:57;102366.53;;;0.91;69.86
49835;BME280;35729;52.090;13.162;2023-04-04T08:25:25;102363.25;;;0.95;69.56
49835;BME280;35729;52.090;13.162;2023-04-04T08:27:54;102366.06;;;1.00;69.84
49835;BME280;35729;52.090;13.162;2023-04-04T08:30:23;102358.56;;;1.06;69.71
49835;BME280;35729;52.090;13.162;2023-04-04T08:32:51;102363.06;;;1.10;68.86
49835;BME280;35729;52.090;13.162;2023-04-04T08:35:20;102359.84;;;1.16;68.98
49835;BME280;35729;52.090;13.162;2023-04-04T08:37:48;102355.72;;;1.21;68.42
49835;BME280;35729;52.090;13.162;2023-04-04T08:40:20;102360.31;;;1.27;68.56
49835;BME280;35729;52.090;13.162;2023-04-04T08:42:49;102351.91;;;1.33;67.66
49835;BME280;35729;52.090;13.162;2023-04-04T08:45:20;102359.91;;;1.39;66.75
49835;BME280;35729;52.090;13.162;2023-04-04T08:47:50;102347.19;;;1.43;64.63
49835;BME280;35729;52.090;13.162;2023-04-04T08:50:19;102355.16;;;1.48;66.10
49835;BME280;35729;52.090;13.162;2023-04-04T08:52:49;102358.75;;;1.52;63.62
49835;BME280;35729;52.090;13.162;2023-04-04T08:55:21;102366.69;;;1.56;61.95
49835;BME280;35729;52.090;13.162;2023-04-04T08:57:50;102359.25;;;1.64;63.55
49835;BME280;35729;52.090;13.162;2023-04-04T09:00:19;102356.78;;;1.67;59.45
49835;BME280;35729;52.090;13.162;2023-04-04T09:02:54;102365.63;;;1.72;60.64
49835;BME280;35729;52.090;13.162;2023-04-04T09:05:25;102366.69;;;1.77;61.38
49835;BME280;35729;52.090;13.162;2023-04-04T09:07:54;102363.53;;;1.85;61.76
49835;BME280;35729;52.090;13.162;2023-04-04T09:10:25;102362.94;;;1.92;60.77
49835;BME280;35729;52.090;13.162;2023-04-04T09:12:55;102359.84;;;2.01;61.63
49835;BME280;35729;52.090;13.162;2023-04-04T09:15:24;102357.44;;;2.05;61.85
49835;BME280;35729;52.090;13.162;2023-04-04T09:17:53;102362.03;;;2.13;62.38
49835;BME280;35729;52.090;13.162;2023-04-04T09:20:37;102355.34;;;2.18;57.08
49835;BME280;35729;52.090;13.162;2023-04-04T09:23:06;102351.31;;;2.26;57.70
49835;BME280;35729;52.090;13.162;2023-04-04T09:25:43;102349.00;;;2.34;61.79
49835;BME280;35729;52.090;13.162;2023-04-04T09:28:13;102345.84;;;2.41;61.90
49835;BME280;35729;52.090;13.162;2023-04-04T09:30:42;102346.25;;;2.52;60.19
49835;BME280;35729;52.090;13.162;2023-04-04T09:33:13;102344.94;;;2.63;59.64
49835;BME280;35729;52.090;13.162;2023-04-04T09:35:44;102347.03;;;2.73;58.44
49835;BME280;35729;52.090;13.162;2023-04-04T09:38:14;102345.59;;;2.82;58.68
49835;BME280;35729;52.090;13.162;2023-04-04T09:40:45;102344.13;;;2.88;58.28
49835;BME280;35729;52.090;13.162;2023-04-04T09:43:14;102342.41;;;2.89;55.74
49835;BME280;35729;52.090;13.162;2023-04-04T09:45:44;102337.25;;;2.90;57.81
49835;BME280;35729;52.090;13.162;2023-04-04T09:48:24;102340.63;;;2.88;49.69
49835;BME280;35729;52.090;13.162;2023-04-04T09:50:53;102334.66;;;2.90;53.50
49835;BME280;35729;52.090;13.162;2023-04-04T09:53:22;102331.31;;;2.93;54.16
49835;BME280;35729;52.090;13.162;2023-04-04T09:55:54;102337.53;;;2.98;55.38
49835;BME280;35729;52.090;13.162;2023-04-04T09:58:23;102333.47;;;3.05;55.20
49835;BME280;35729;52.090;13.162;2023-04-04T10:00:54;102329.38;;;3.12;54.85
49835;BME280;35729;52.090;13.162;2023-04-04T10:03:23;102330.44;;;3.18;54.45
49835;BME280;35729;52.090;13.162;2023-04-04T10:05:58;102326.41;;;3.26;53.31
49835;BME280;35729;52.090;13.162;2023-04-04T10:08:27;102329.31;;;3.36;53.83
49835;BME280;35729;52.090;13.162;2023-04-04T10:11:00;102324.38;;;3.43;51.98
49835;BME280;35729;52.090;13.162;2023-04-04T10:13:31;102323.78;;;3.52;54.26
49835;BME280;35729;52.090;13.162;2023-04-04T10:16:01;102331.13;;;3.64;54.49
49835;BME280;35729;52.090;13.162;2023-04-04T10:18:31;102325.34;;;3.73;52.58
49835;BME280;35729;52.090;13.162;2023-04-04T10:21:01;102330.78;;;3.81;48.84
49835;BME280;35729;52.090;13.162;2023-04-04T10:23:30;102334.41;;;3.86;43.56
49835;BME280;35729;52.090;13.162;2023-04-04T10:26:03;102331.00;;;3.88;48.30
49835;BME280;35729;52.090;13.162;2023-04-04T10:28:32;102328.50;;;3.91;49.79
49835;BME280;35729;52.090;13.162;2023-04-04T10:31:06;102322.50;;;3.94;46.02
49835;BME280;35729;52.090;13.162;2023-04-04T10:33:43;102324.31;;;3.97;47.57
49835;BME280;35729;52.090;13.162;2023-04-04T10:36:16;102320.22;;;4.03;48.81
49835;BME280;35729;52.090;13.162;2023-04-04T10:38:50;102321.28;;;4.10;45.15
49835;BME280;35729;52.090;13.162;2023-04-04T10:41:22;102310.25;;;4.17;50.47
49835;BME280;35729;52.090;13.162;2023-04-04T10:43:55;102302.75;;;4.28;50.91
49835;BME280;35729;52.090;13.162;2023-04-04T10:46:28;102297.13;;;4.43;49.74
49835;BME280;35729;52.090;13.162;2023-04-04T10:48:59;102297.56;;;4.59;47.62
49835;BME280;35729;52.090;13.162;2023-04-04T10:51:29;102293.63;;;4.73;49.34
49835;BME280;35729;52.090;13.162;2023-04-04T10:53:58;102288.78;;;4.85;49.91
49835;BME280;35729;52.090;13.162;2023-04-04T10:56:30;102283.88;;;4.98;48.40
49835;BME280;35729;52.090;13.162;2023-04-04T10:59:11;102275.38;;;5.05;48.71
49835;BME280;35729;52.090;13.162;2023-04-04T11:01:47;102286.09;;;5.16;46.03
49835;BME280;35729;52.090;13.162;2023-04-04T11:04:17;102283.66;;;5.24;48.05
49835;BME280;35729;52.090;13.162;2023-04-04T11:07:17;102284.50;;;5.22;44.39
49835;BME280;35729;52.090;13.162;2023-04-04T11:09:49;102286.16;;;5.19;45.10
49835;BME280;35729;52.090;13.162;2023-04-04T11:12:26;102278.13;;;5.10;44.45
49835;BME280;35729;52.090;13.162;2023-04-04T11:15:06;102273.63;;;5.04;46.37
49835;BME280;35729;52.090;13.162;2023-04-04T11:17:54;102265.00;;;5.06;45.28
49835;BME280;35729;52.090;13.162;2023-04-04T11:20:28;102274.59;;;5.08;44.22
49835;BME280;35729;52.090;13.162;2023-04-04T11:23:01;102266.78;;;5.08;46.58
49835;BME280;35729;52.090;13.162;2023-04-04T11:25:31;102271.16;;;5.09;45.00
49835;BME280;35729;52.090;13.162;2023-04-04T11:28:07;102266.00;;;5.12;46.85
49835;BME280;35729;52.090;13.162;2023-04-04T11:30:40;102265.31;;;5.17;48.20
49835;BME280;35729;52.090;13.162;2023-04-04T11:33:15;102256.00;;;5.27;49.17
49835;BME280;35729;52.090;13.162;2023-04-04T11:35:57;102244.13;;;5.38;46.46
49835;BME280;35729;52.090;13.162;2023-04-04T11:38:26;102240.00;;;5.48;48.42
49835;BME280;35729;52.090;13.162;2023-04-04T11:40:56;102249.84;;;5.60;46.16
49835;BME280;35729;52.090;13.162;2023-04-04T11:43:27;102239.63;;;5.69;46.60
49835;BME280;35729;52.090;13.162;2023-04-04T11:46:04;102243.19;;;5.75;42.87
49835;BME280;35729;52.090;13.162;2023-04-04T11:48:37;102238.91;;;5.77;45.67
49835;BME280;35729;52.090;13.162;2023-04-04T11:51:06;102241.53;;;5.77;45.44
49835;BME280;35729;52.090;13.162;2023-04-04T11:53:36;102230.13;;;5.71;45.60
49835;BME280;35729;52.090;13.162;2023-04-04T11:56:05;102237.84;;;5.68;45.70
49835;BME280;35729;52.090;13.162;2023-04-04T11:58:36;102237.00;;;5.69;43.38
49835;BME280;35729;52.090;13.162;2023-04-04T12:01:05;102226.63;;;5.71;45.55
49835;BME280;35729;52.090;13.162;2023-04-04T12:03:33;102231.81;;;5.69;45.02
49835;BME280;35729;52.090;13.162;2023-04-04T12:06:03;102230.91;;;5.67;45.27
49835;BME280;35729;52.090;13.162;2023-04-04T12:08:31;102229.19;;;5.69;46.82
49835;BME280;35729;52.090;13.162;2023-04-04T12:11:03;102215.47;;;5.77;46.54
49835;BME280;35729;52.090;13.162;2023-04-04T12:13:41;102218.44;;;5.94;46.14
49835;BME280;35729;52.090;13.162;2023-04-04T12:16:10;102205.00;;;6.15;46.66
49835;BME280;35729;52.090;13.162;2023-04-04T12:18:38;102215.88;;;6.38;46.27
49835;BME280;35729;52.090;13.162;2023-04-04T12:21:14;102205.81;;;6.58;43.94
49835;BME280;35729;52.090;13.162;2023-04-04T12:23:42;102206.06;;;6.71;45.08
49835;BME280;35729;52.090;13.162;2023-04-04T12:26:11;102205.34;;;6.81;45.55
49835;BME280;35729;52.090;13.162;2023-04-04T12:28:43;102197.72;;;6.90;45.57
49835;BME280;35729;52.090;13.162;2023-04-04T12:31:12;102198.66;;;6.95;44.97
49835;BME280;35729;52.090;13.162;2023-04-04T12:33:42;102192.63;;;6.98;45.79
49835;BME280;35729;52.090;13.162;2023-04-04T12:36:11;102187.31;;;6.93;43.19
49835;BME280;35729;52.090;13.162;2023-04-04T12:38:54;102188.81;;;6.79;41.61
49835;BME280;35729;52.090;13.162;2023-04-04T12:41:24;102185.19;;;6.72;44.65
49835;BME280;35729;52.090;13.162;2023-04-04T12:44:01;102178.28;;;6.73;43.58
49835;BME280;35729;52.090;13.162;2023-04-04T12:46:37;102182.53;;;6.67;41.86
49835;BME280;35729;52.090;13.162;2023-04-04T12:49:06;102172.94;;;6.66;44.05
49835;BME280;35729;52.090;13.162;2023-04-04T12:51:36;102167.72;;;6.66;43.12
49835;BME280;35729;52.090;13.162;2023-04-04T12:54:06;102168.69;;;6.72;44.01
49835;BME280;35729;52.090;13.162;2023-04-04T12:56:35;102166.22;;;6.81;44.73
49835;BME280;35729;52.090;13.162;2023-04-04T12:59:07;102169.88;;;6.92;41.77